Picayune, MS

20:06 CDT le 26 août 2016 (GMT -0500)
Hide_A_Way Lake ~OWX | | Change Station

Alt. 100 ft 30.58 °N, 89.65 °W | Updated 5 seconds ago

Clear
Ciel dégagé
82.8 ° F
Paraît 91 ° F
N
0.0
Vent Variable Vent de Est
Gusts 0.0 mph

Aujourd'hui
Haut(e) -- | Bas -- ° F
--% Risque de précip.
Hier
Haut(e) -- | Bas -- ° F
Precip. -- pouce
Pression 29.97 pouce
Visibilité 10.0 Miles terrestres
Nuages Ciel dégagé
indice de chaleur 91 ° F
Point de rosée 76 ° F
Humidité 80%
Précipitations 0.00 pouce
Profondeur de la couche neigeuse Non disponible.
6:32 AM 7:28 PM
Lune descendante, 29% visible
METAR KASD 270053Z AUTO 00000KT 10SM CLR 28/24 A2997 RMK AO2 SLP149 T02780244
Pression 29.97 pouce
Visibilité 10.0 Miles terrestres
Nuages Ciel dégagé
indice de chaleur 91 ° F
Point de rosée 76 ° F
Humidité 80%
Précipitations 0.00 pouce
Profondeur de la couche neigeuse Non disponible.
6:32 AM 7:28 PM
Lune descendante, 29% visible
METAR KASD 270053Z AUTO 00000KT 10SM CLR 28/24 A2997 RMK AO2 SLP149 T02780244

10-Day Weather Forecast

Almanac

Astronomie

Aug. 26, 2016 Lever Coucher
Temps réel
Crépuscule civil
Crépuscule nautique
Crépuscule astronomique
Lune
Durée de lumière visible
Longueur du jour
Tomorrow will be .
, % of the Moon is Illuminated

Extrêmes aujourd'hui

State Highs State Lows

Community

WunderPhotos

Upload Photos

1,935,261 Photos téléchargées !

WunderBlog® & News

Nearby

Qualité de l'air

  Qualité de l'air Indice de la qualité de l'air Polluant
Not available.

Épaisseur de neige

Station Depth Altitude

Activité sismique

Ville Distance Mag. Time & Date
Minimum magnitude displayed is 2.5.

Températures des eaux côtières

Lieu Température

Stations

Stations météo à proximité

Emplacement de la station Température Refroidissement éolien Point de rosée Humidité Vent Precip. Alt. Mise à jour Type
                   

Watches & Warnings

There are currently no watches in effect.